createdAt,value
2023-01-26T00:01:13.944Z,9.13
2023-01-26T00:03:33.227Z,9.93
2023-01-26T00:05:50.994Z,10.93
2023-01-26T00:08:07.946Z,11.52
2023-01-26T00:10:25.137Z,11.40
2023-01-26T00:12:42.244Z,11.35
2023-01-26T00:14:59.593Z,11.90
2023-01-26T00:17:16.716Z,12.25
2023-01-26T00:19:34.003Z,12.90
2023-01-26T00:21:51.129Z,10.82
2023-01-26T00:24:08.418Z,12.18
2023-01-26T00:26:25.512Z,11.25
2023-01-26T00:28:42.553Z,12.13
2023-01-26T00:30:59.919Z,10.98
2023-01-26T00:33:17.230Z,11.88
2023-01-26T00:35:34.237Z,12.98
2023-01-26T00:37:51.271Z,10.00
2023-01-26T00:40:08.450Z,10.80
2023-01-26T00:42:26.059Z,12.10
2023-01-26T00:44:43.145Z,10.52
2023-01-26T00:47:00.115Z,9.93
2023-01-26T00:49:17.080Z,9.52
2023-01-26T00:51:34.120Z,10.63
2023-01-26T00:53:51.375Z,9.18
2023-01-26T00:56:08.629Z,10.35
2023-01-26T00:58:25.942Z,8.00
2023-01-26T01:00:43.125Z,10.70
2023-01-26T01:03:01.602Z,10.10
2023-01-26T01:05:18.728Z,10.05
2023-01-26T01:07:35.915Z,10.65
2023-01-26T01:09:53.401Z,9.65
2023-01-26T01:12:10.731Z,8.15
2023-01-26T01:14:28.136Z,8.48
2023-01-26T01:16:45.810Z,8.93
2023-01-26T01:19:03.176Z,9.00
2023-01-26T01:21:21.529Z,9.88
2023-01-26T01:23:38.777Z,11.05
2023-01-26T01:25:56.148Z,9.57
2023-01-26T01:28:16.077Z,10.77
2023-01-26T01:30:33.206Z,11.25
2023-01-26T01:32:50.316Z,11.35
2023-01-26T01:35:07.465Z,13.18
2023-01-26T01:37:24.570Z,11.93
2023-01-26T01:39:41.970Z,13.70
2023-01-26T01:41:59.031Z,12.98
2023-01-26T01:44:18.614Z,13.25
2023-01-26T01:46:38.439Z,14.27
2023-01-26T01:48:58.605Z,12.13
2023-01-26T01:51:18.855Z,9.38
2023-01-26T01:53:35.968Z,10.50
2023-01-26T01:55:54.255Z,8.15
2023-01-26T01:58:11.653Z,9.90
2023-01-26T02:00:28.982Z,9.65
2023-01-26T02:02:46.115Z,9.00
2023-01-26T02:05:04.520Z,9.45
2023-01-26T02:07:21.487Z,8.10
2023-01-26T02:09:39.754Z,7.55
2023-01-26T02:12:00.891Z,7.93
2023-01-26T02:14:18.974Z,7.38
2023-01-26T02:16:38.412Z,8.55
2023-01-26T02:18:55.459Z,7.72
2023-01-26T02:21:12.628Z,8.20
2023-01-26T02:23:30.690Z,8.05
2023-01-26T02:25:48.017Z,7.97
2023-01-26T02:28:05.316Z,8.07
2023-01-26T02:30:27.033Z,8.70
2023-01-26T02:32:45.073Z,9.48
2023-01-26T02:35:02.503Z,7.72
2023-01-26T02:37:19.841Z,7.68
2023-01-26T02:39:37.267Z,7.93
2023-01-26T02:41:54.396Z,7.63
2023-01-26T02:44:11.368Z,6.88
2023-01-26T02:46:28.516Z,8.23
2023-01-26T02:48:46.045Z,9.10
2023-01-26T02:51:05.292Z,7.78
2023-01-26T02:53:22.415Z,7.75
2023-01-26T02:55:39.559Z,8.45
2023-01-26T02:57:56.570Z,8.00
2023-01-26T03:00:14.073Z,8.02
2023-01-26T03:02:31.379Z,7.80
2023-01-26T03:04:48.395Z,6.43
2023-01-26T03:07:05.545Z,6.78
2023-01-26T03:09:22.658Z,6.65
2023-01-26T03:11:41.150Z,6.57
2023-01-26T03:13:58.199Z,6.50
2023-01-26T03:16:17.334Z,5.72
2023-01-26T03:18:34.391Z,5.20
2023-01-26T03:20:54.224Z,5.63
2023-01-26T03:23:12.260Z,6.25
2023-01-26T03:25:29.193Z,6.30
2023-01-26T03:27:47.550Z,6.90
2023-01-26T03:30:04.717Z,6.18
2023-01-26T03:32:22.037Z,5.13
2023-01-26T03:34:39.950Z,5.90
2023-01-26T03:36:57.054Z,5.10
2023-01-26T03:39:14.493Z,5.30
2023-01-26T03:41:31.810Z,6.03
2023-01-26T03:43:48.830Z,5.30
2023-01-26T03:46:05.970Z,6.00
2023-01-26T03:48:23.338Z,4.57
2023-01-26T03:50:40.250Z,4.22
2023-01-26T03:52:57.295Z,4.80
2023-01-26T03:55:15.511Z,4.63
2023-01-26T03:57:32.648Z,4.75
2023-01-26T03:59:49.685Z,3.88
2023-01-26T04:02:06.754Z,5.15
2023-01-26T04:04:23.772Z,4.45
2023-01-26T04:06:41.022Z,4.97
2023-01-26T04:08:58.036Z,5.20
2023-01-26T04:11:14.971Z,3.95
2023-01-26T04:13:32.009Z,5.38
2023-01-26T04:15:49.037Z,5.05
2023-01-26T04:18:06.278Z,4.55
2023-01-26T04:20:24.330Z,4.30
2023-01-26T04:22:41.591Z,4.22
2023-01-26T04:24:58.880Z,4.28
2023-01-26T04:27:15.936Z,5.43
2023-01-26T04:29:33.228Z,3.88
2023-01-26T04:31:50.542Z,4.35
2023-01-26T04:34:07.924Z,4.85
2023-01-26T04:36:25.159Z,5.55
2023-01-26T04:38:42.566Z,5.35
2023-01-26T04:40:59.838Z,5.25
2023-01-26T04:43:16.911Z,5.28
2023-01-26T04:45:34.188Z,4.55
2023-01-26T04:47:51.242Z,5.88
2023-01-26T04:50:08.239Z,5.55
2023-01-26T04:52:26.334Z,5.13
2023-01-26T04:54:43.652Z,5.80
2023-01-26T04:57:00.580Z,5.38
2023-01-26T04:59:17.520Z,5.32
2023-01-26T05:01:34.554Z,7.05
2023-01-26T05:03:52.857Z,6.28
2023-01-26T05:06:10.871Z,8.30
2023-01-26T05:08:27.880Z,7.00
2023-01-26T05:10:44.938Z,6.60
2023-01-26T05:13:03.145Z,6.40
2023-01-26T05:15:20.113Z,8.63
2023-01-26T05:17:37.421Z,6.65
2023-01-26T05:19:54.543Z,8.63
2023-01-26T05:22:12.573Z,8.90
2023-01-26T05:24:29.810Z,9.05
2023-01-26T05:26:48.045Z,10.60
2023-01-26T05:29:05.084Z,9.13
2023-01-26T05:31:22.389Z,9.95
2023-01-26T05:33:39.462Z,8.25
2023-01-26T05:35:56.387Z,9.40
2023-01-26T05:38:13.315Z,10.60
2023-01-26T05:40:30.561Z,8.85
2023-01-26T05:42:47.890Z,15.68
2023-01-26T05:45:05.149Z,19.13
2023-01-26T05:47:22.377Z,20.85
2023-01-26T05:49:39.725Z,22.90
2023-01-26T05:51:56.788Z,19.15
2023-01-26T05:54:13.785Z,21.52
2023-01-26T05:56:31.824Z,15.43
2023-01-26T05:58:48.874Z,17.10
2023-01-26T06:01:05.824Z,14.95
2023-01-26T06:03:22.854Z,44.30
2023-01-26T06:05:40.237Z,58.28
2023-01-26T06:07:57.481Z,39.17
2023-01-26T06:10:14.539Z,20.13
2023-01-26T06:12:31.548Z,15.35
2023-01-26T06:14:48.658Z,15.07
2023-01-26T06:17:05.628Z,12.57
2023-01-26T06:19:22.540Z,13.50
2023-01-26T06:21:39.836Z,13.63
2023-01-26T06:23:57.083Z,14.00
2023-01-26T06:26:14.132Z,13.52
2023-01-26T06:28:31.182Z,36.25
2023-01-26T06:30:48.532Z,116.75
2023-01-26T06:33:05.867Z,64.30
2023-01-26T06:35:23.116Z,31.60
2023-01-26T06:37:40.110Z,28.98
2023-01-26T06:39:58.053Z,18.65
2023-01-26T06:42:15.454Z,17.40
2023-01-26T06:44:32.493Z,18.02
2023-01-26T06:46:49.555Z,14.35
2023-01-26T06:49:06.597Z,15.15
2023-01-26T06:51:23.892Z,14.10
2023-01-26T06:53:40.808Z,16.38
2023-01-26T06:55:58.042Z,17.95
2023-01-26T06:58:15.258Z,16.60
2023-01-26T07:00:32.200Z,20.80
2023-01-26T07:02:49.234Z,28.33
2023-01-26T07:05:06.583Z,20.48
2023-01-26T07:07:24.854Z,17.92
2023-01-26T07:09:41.911Z,18.25
2023-01-26T07:11:58.958Z,24.92
2023-01-26T07:14:15.979Z,27.30
2023-01-26T07:16:34.175Z,53.17
2023-01-26T07:18:51.201Z,44.05
2023-01-26T07:21:08.466Z,39.90
2023-01-26T07:23:25.546Z,36.88
2023-01-26T07:25:42.532Z,43.50
2023-01-26T07:27:59.622Z,23.25
2023-01-26T07:30:16.657Z,23.77
2023-01-26T07:32:34.541Z,17.83
2023-01-26T07:34:51.548Z,17.13
2023-01-26T07:37:09.610Z,15.73
2023-01-26T07:39:26.619Z,13.93
2023-01-26T07:41:43.908Z,14.57
2023-01-26T07:44:01.279Z,15.13
2023-01-26T07:46:18.472Z,13.68
2023-01-26T07:48:35.521Z,16.23
2023-01-26T07:50:53.571Z,17.02
2023-01-26T07:53:10.571Z,15.90
2023-01-26T07:55:27.666Z,20.38
2023-01-26T07:57:44.897Z,27.52
2023-01-26T08:00:01.979Z,20.27
2023-01-26T08:02:18.929Z,23.13
2023-01-26T08:04:36.023Z,20.20
2023-01-26T08:06:53.079Z,19.35
2023-01-26T08:09:10.253Z,23.83
2023-01-26T08:11:27.617Z,25.85
2023-01-26T08:13:44.703Z,28.08
2023-01-26T08:16:01.883Z,25.45
2023-01-26T08:18:19.109Z,25.15
2023-01-26T08:20:36.367Z,22.38
2023-01-26T08:22:53.380Z,19.80
2023-01-26T08:25:11.676Z,26.25
2023-01-26T08:27:28.690Z,26.17
2023-01-26T08:29:46.760Z,23.58
2023-01-26T08:32:03.829Z,19.35
2023-01-26T08:34:22.167Z,20.80
2023-01-26T08:36:39.431Z,23.70
2023-01-26T08:38:57.390Z,27.10
2023-01-26T08:41:15.614Z,20.05
2023-01-26T08:43:33.645Z,35.55
2023-01-26T08:45:50.667Z,22.73
2023-01-26T08:48:07.766Z,26.95
2023-01-26T08:50:24.788Z,27.20
2023-01-26T08:52:41.996Z,34.03
2023-01-26T08:54:58.990Z,28.02
2023-01-26T08:57:16.981Z,25.35
2023-01-26T08:59:35.047Z,22.52
2023-01-26T09:01:52.114Z,27.02
2023-01-26T09:04:09.093Z,24.63
2023-01-26T09:06:26.137Z,25.92
2023-01-26T09:08:43.447Z,20.63
2023-01-26T09:11:00.507Z,21.88
2023-01-26T09:13:17.542Z,23.27
2023-01-26T09:15:34.560Z,22.23
2023-01-26T09:17:51.823Z,21.38
2023-01-26T09:20:08.808Z,20.70
2023-01-26T09:22:25.857Z,19.00
2023-01-26T09:24:43.900Z,20.50
2023-01-26T09:27:01.202Z,27.35
2023-01-26T09:29:19.193Z,21.95
2023-01-26T09:31:36.660Z,20.58
2023-01-26T09:33:53.818Z,22.55
2023-01-26T09:36:11.026Z,20.83
2023-01-26T09:38:28.137Z,20.13
2023-01-26T09:40:46.425Z,24.02
2023-01-26T09:43:03.708Z,23.60
2023-01-26T09:45:20.928Z,24.83
2023-01-26T09:47:38.242Z,25.00
2023-01-26T09:49:57.218Z,20.83
2023-01-26T09:52:15.029Z,21.90
2023-01-26T09:54:33.269Z,28.67
2023-01-26T09:56:50.290Z,41.20
2023-01-26T09:59:07.363Z,70.10
2023-01-26T10:01:24.409Z,44.50
2023-01-26T10:03:41.546Z,47.50
2023-01-26T10:05:58.845Z,77.75
2023-01-26T10:08:15.850Z,73.82
2023-01-26T10:10:32.825Z,42.50
2023-01-26T10:12:50.206Z,36.22
2023-01-26T10:15:07.296Z,33.78
2023-01-26T10:17:24.386Z,25.77
2023-01-26T10:19:42.605Z,29.05
2023-01-26T10:22:00.030Z,26.77
2023-01-26T10:24:17.139Z,29.83
2023-01-26T10:26:34.202Z,26.25
2023-01-26T10:28:53.854Z,25.10
2023-01-26T10:31:10.949Z,26.27
2023-01-26T10:33:29.345Z,26.42
2023-01-26T10:35:46.693Z,24.23
2023-01-26T10:38:03.702Z,30.70
2023-01-26T10:40:21.030Z,27.02
2023-01-26T10:42:38.162Z,31.38
2023-01-26T10:44:55.427Z,27.25
2023-01-26T10:47:12.476Z,28.50
2023-01-26T10:49:29.573Z,75.85
2023-01-26T10:51:46.664Z,62.75
2023-01-26T10:54:03.687Z,57.17
2023-01-26T10:56:20.794Z,34.20
2023-01-26T10:58:43.206Z,24.35
2023-01-26T11:01:00.532Z,26.45
2023-01-26T11:03:18.554Z,25.65
2023-01-26T11:05:35.481Z,22.85
2023-01-26T11:07:52.751Z,22.38
2023-01-26T11:10:09.790Z,22.52
2023-01-26T11:12:27.858Z,22.90
2023-01-26T11:14:45.287Z,20.55
2023-01-26T11:17:03.240Z,24.58
2023-01-26T11:19:21.031Z,18.45
2023-01-26T11:21:38.157Z,22.27
2023-01-26T11:23:55.234Z,18.70
2023-01-26T11:26:12.491Z,19.30
2023-01-26T11:28:29.494Z,15.32
2023-01-26T11:30:46.671Z,19.00
2023-01-26T11:33:03.610Z,18.40
2023-01-26T11:35:21.079Z,18.05
2023-01-26T11:37:41.296Z,17.90
2023-01-26T11:39:58.402Z,14.93
2023-01-26T11:42:15.471Z,15.63
2023-01-26T11:44:35.539Z,13.52
2023-01-26T11:46:52.702Z,12.88
2023-01-26T11:49:09.732Z,12.20
2023-01-26T11:51:26.678Z,11.00
2023-01-26T11:53:43.722Z,11.52
2023-01-26T11:56:00.743Z,10.55
2023-01-26T11:58:18.695Z,11.43
2023-01-26T12:00:39.346Z,10.32
2023-01-26T12:02:56.590Z,11.32
2023-01-26T12:05:14.564Z,13.35
2023-01-26T12:07:39.237Z,10.95
2023-01-26T12:09:56.317Z,11.10
2023-01-26T12:12:13.584Z,10.43
2023-01-26T12:14:31.480Z,9.05
2023-01-26T12:16:48.369Z,8.73
2023-01-26T12:19:11.021Z,8.25
2023-01-26T12:21:28.827Z,10.35
2023-01-26T12:23:45.897Z,10.27
2023-01-26T12:26:03.373Z,9.93
2023-01-26T12:28:20.439Z,9.35
2023-01-26T12:30:37.676Z,9.98
2023-01-26T12:32:54.795Z,10.23
2023-01-26T12:35:12.211Z,8.30
2023-01-26T12:37:30.733Z,28.83
2023-01-26T12:39:48.007Z,10.77
2023-01-26T12:42:04.980Z,10.40
2023-01-26T12:44:22.033Z,13.98
2023-01-26T12:46:39.017Z,18.77
2023-01-26T12:48:56.310Z,15.95
2023-01-26T12:51:13.511Z,10.70
2023-01-26T12:53:30.427Z,10.15
2023-01-26T12:55:48.460Z,10.57
2023-01-26T12:58:05.844Z,13.38
2023-01-26T13:00:23.116Z,12.73
2023-01-26T13:02:41.155Z,15.25
2023-01-26T13:04:58.456Z,14.85
2023-01-26T13:07:15.517Z,17.27
2023-01-26T13:09:32.739Z,41.05
2023-01-26T13:11:52.868Z,42.30
2023-01-26T13:14:09.752Z,22.05
2023-01-26T13:16:26.717Z,18.45
2023-01-26T13:18:44.953Z,16.23
2023-01-26T13:21:02.155Z,12.88
2023-01-26T13:23:19.275Z,11.32
2023-01-26T13:25:36.323Z,22.60
2023-01-26T13:27:53.607Z,27.95
2023-01-26T13:30:11.304Z,15.43
2023-01-26T13:32:28.508Z,13.43
2023-01-26T13:34:45.835Z,13.32
2023-01-26T13:37:03.887Z,12.45
2023-01-26T13:39:21.221Z,10.27
2023-01-26T13:41:40.211Z,11.68
2023-01-26T13:43:57.571Z,9.70
2023-01-26T13:46:14.858Z,13.55
2023-01-26T13:48:34.698Z,13.77
2023-01-26T13:50:52.159Z,15.35
2023-01-26T13:53:09.198Z,33.88
2023-01-26T13:55:26.395Z,29.85
2023-01-26T13:57:43.630Z,48.90
2023-01-26T14:00:01.807Z,26.45
2023-01-26T14:02:19.162Z,30.77
2023-01-26T14:04:36.510Z,37.22
2023-01-26T14:06:53.441Z,27.63
2023-01-26T14:09:10.480Z,24.33
2023-01-26T14:11:27.872Z,19.13
2023-01-26T14:13:44.922Z,20.08
2023-01-26T14:16:05.632Z,17.00
2023-01-26T14:18:22.734Z,19.23
2023-01-26T14:20:40.058Z,20.08
2023-01-26T14:22:57.116Z,27.40
2023-01-26T14:25:14.222Z,32.60
2023-01-26T14:27:31.345Z,23.83
2023-01-26T14:29:48.385Z,25.98
2023-01-26T14:32:08.372Z,23.58
2023-01-26T14:34:25.609Z,22.13
2023-01-26T14:36:44.332Z,25.60
2023-01-26T14:39:01.444Z,20.95
2023-01-26T14:41:18.371Z,24.33
2023-01-26T14:43:35.669Z,20.05
2023-01-26T14:45:53.014Z,19.33
2023-01-26T14:48:10.596Z,24.13
2023-01-26T14:50:27.627Z,44.83
2023-01-26T14:52:44.875Z,24.20
2023-01-26T14:55:01.907Z,22.52
2023-01-26T14:57:19.085Z,23.48
2023-01-26T14:59:37.210Z,23.05
2023-01-26T15:01:54.246Z,22.27
2023-01-26T15:04:11.580Z,17.75
2023-01-26T15:06:28.651Z,21.35
2023-01-26T15:08:47.222Z,18.98
2023-01-26T15:11:06.941Z,18.45
2023-01-26T15:13:23.957Z,16.13
2023-01-26T15:15:41.100Z,16.13
2023-01-26T15:17:58.415Z,15.75
2023-01-26T15:20:15.412Z,17.75
2023-01-26T15:22:32.819Z,15.50
2023-01-26T15:24:51.269Z,17.75
2023-01-26T15:27:08.688Z,14.43
2023-01-26T15:29:25.786Z,16.23
2023-01-26T15:31:42.946Z,16.75
2023-01-26T15:34:00.393Z,17.50
2023-01-26T15:36:17.528Z,17.63
2023-01-26T15:38:34.883Z,18.67
2023-01-26T15:40:52.242Z,15.13
2023-01-26T15:43:09.321Z,15.55
2023-01-26T15:45:26.316Z,17.05
2023-01-26T15:47:44.092Z,16.73
2023-01-26T15:50:02.489Z,27.40
2023-01-26T15:52:21.036Z,24.58
2023-01-26T15:54:38.216Z,22.88
2023-01-26T15:56:56.319Z,22.45
2023-01-26T15:59:13.410Z,25.42
2023-01-26T16:01:33.775Z,25.95
2023-01-26T16:03:58.542Z,19.98
2023-01-26T16:06:15.972Z,21.25
2023-01-26T16:08:33.117Z,19.85
2023-01-26T16:10:50.285Z,23.27
2023-01-26T16:13:07.901Z,46.83
2023-01-26T16:15:25.339Z,32.00
2023-01-26T16:17:42.410Z,29.38
2023-01-26T16:19:59.507Z,31.30
2023-01-26T16:22:17.887Z,27.45
2023-01-26T16:24:34.946Z,28.90
2023-01-26T16:26:52.524Z,30.92
2023-01-26T16:29:09.671Z,27.25
2023-01-26T16:31:26.967Z,32.53
2023-01-26T16:33:44.470Z,27.10
2023-01-26T16:36:02.498Z,22.23
2023-01-26T16:38:19.896Z,24.05
2023-01-26T16:40:37.214Z,22.25
2023-01-26T16:42:54.555Z,28.20
2023-01-26T16:45:12.132Z,24.27
2023-01-26T16:47:29.402Z,19.50
2023-01-26T16:49:47.426Z,23.55
2023-01-26T16:52:04.477Z,19.58
2023-01-26T16:54:22.487Z,19.55
2023-01-26T16:56:39.866Z,21.35
2023-01-26T16:58:57.172Z,20.60
2023-01-26T17:01:14.580Z,22.48
2023-01-26T17:03:31.692Z,24.40
2023-01-26T17:05:49.006Z,23.27
2023-01-26T17:08:06.201Z,23.27
2023-01-26T17:10:23.216Z,22.42
2023-01-26T17:12:40.316Z,20.95
2023-01-26T17:14:57.635Z,19.80
2023-01-26T17:17:15.851Z,20.67
2023-01-26T17:19:32.859Z,23.48
2023-01-26T17:21:50.200Z,20.95
2023-01-26T17:24:07.299Z,19.85
2023-01-26T17:26:24.395Z,21.45
2023-01-26T17:28:41.642Z,20.65
2023-01-26T17:31:01.131Z,21.05
2023-01-26T17:33:18.709Z,15.27
2023-01-26T17:35:36.708Z,16.55
2023-01-26T17:37:53.561Z,16.67
2023-01-26T17:40:10.645Z,16.08
2023-01-26T17:42:27.752Z,21.02
2023-01-26T17:44:45.662Z,21.17
2023-01-26T17:47:03.692Z,18.60
2023-01-26T17:49:21.022Z,17.75
2023-01-26T17:51:38.497Z,17.42
2023-01-26T17:53:55.504Z,16.38
2023-01-26T17:56:12.570Z,14.60
2023-01-26T17:58:30.899Z,14.68
2023-01-26T18:00:47.997Z,14.77
2023-01-26T18:03:06.239Z,15.48
2023-01-26T18:05:23.381Z,14.80
2023-01-26T18:07:41.726Z,16.83
2023-01-26T18:09:59.096Z,14.07
2023-01-26T18:12:17.134Z,14.15
2023-01-26T18:14:34.395Z,16.88
2023-01-26T18:16:51.604Z,16.02
2023-01-26T18:19:10.022Z,14.95
2023-01-26T18:21:27.592Z,15.05
2023-01-26T18:23:45.566Z,16.88
2023-01-26T18:26:02.836Z,15.23
2023-01-26T18:28:20.169Z,13.48
2023-01-26T18:30:37.230Z,11.45
2023-01-26T18:32:54.310Z,11.50
2023-01-26T18:35:11.556Z,12.02
2023-01-26T18:37:28.747Z,10.85
2023-01-26T18:39:46.764Z,12.38
2023-01-26T18:42:03.764Z,32.80
2023-01-26T18:44:21.092Z,25.90
2023-01-26T18:46:39.187Z,10.65
2023-01-26T18:48:56.511Z,10.48
2023-01-26T18:51:13.541Z,12.68
2023-01-26T18:53:30.590Z,9.90
2023-01-26T18:55:47.531Z,9.65
2023-01-26T18:58:05.555Z,9.88
2023-01-26T19:00:22.596Z,8.88
2023-01-26T19:02:40.950Z,9.48
2023-01-26T19:04:58.032Z,8.40
2023-01-26T19:07:15.159Z,8.48
2023-01-26T19:09:32.169Z,8.50
2023-01-26T19:11:49.233Z,8.50
2023-01-26T19:14:06.291Z,8.88
2023-01-26T19:16:23.345Z,9.48
2023-01-26T19:18:41.284Z,8.52
2023-01-26T19:20:59.219Z,9.48
2023-01-26T19:23:16.481Z,8.63
2023-01-26T19:25:33.468Z,7.70
2023-01-26T19:27:51.517Z,7.65
2023-01-26T19:30:08.605Z,7.90
2023-01-26T19:32:25.925Z,8.65
2023-01-26T19:34:43.237Z,9.20
2023-01-26T19:37:00.193Z,7.43
2023-01-26T19:39:17.494Z,7.95
2023-01-26T19:41:34.864Z,8.32
2023-01-26T19:43:51.797Z,9.60
2023-01-26T19:46:09.659Z,8.23
2023-01-26T19:48:26.986Z,9.13
2023-01-26T19:50:44.242Z,7.55
2023-01-26T19:53:01.132Z,8.35
2023-01-26T19:55:18.416Z,8.38
2023-01-26T19:57:35.697Z,8.65
2023-01-26T19:59:52.669Z,8.07
2023-01-26T20:02:09.946Z,7.40
2023-01-26T20:04:27.023Z,8.40
2023-01-26T20:06:44.033Z,7.57
2023-01-26T20:09:02.406Z,8.65
2023-01-26T20:11:19.462Z,6.65
2023-01-26T20:13:36.381Z,6.70
2023-01-26T20:15:53.452Z,7.30
2023-01-26T20:18:10.826Z,7.53
2023-01-26T20:20:27.859Z,6.03
2023-01-26T20:22:44.916Z,5.90
2023-01-26T20:25:02.175Z,7.07
2023-01-26T20:27:19.105Z,7.40
2023-01-26T20:29:36.146Z,6.28
2023-01-26T20:31:53.172Z,8.82
2023-01-26T20:34:10.507Z,8.10
2023-01-26T20:36:27.862Z,6.20
2023-01-26T20:38:44.879Z,7.30
2023-01-26T20:41:01.937Z,6.28
2023-01-26T20:43:19.019Z,6.53
2023-01-26T20:45:36.390Z,7.35
2023-01-26T20:47:53.700Z,8.80
2023-01-26T20:50:10.876Z,7.90
2023-01-26T20:52:27.951Z,6.15
2023-01-26T20:54:46.215Z,7.47
2023-01-26T20:57:03.289Z,5.38
2023-01-26T20:59:21.222Z,4.97
2023-01-26T21:01:38.937Z,6.38
2023-01-26T21:03:56.022Z,5.97
2023-01-26T21:06:13.318Z,6.68
2023-01-26T21:08:30.424Z,7.13
2023-01-26T21:10:47.444Z,6.20
2023-01-26T21:13:04.612Z,7.30
2023-01-26T21:15:21.550Z,5.85
2023-01-26T21:17:38.601Z,5.75
2023-01-26T21:19:55.819Z,5.93
2023-01-26T21:22:12.810Z,6.35
2023-01-26T21:24:30.159Z,6.78
2023-01-26T21:26:47.198Z,6.28
2023-01-26T21:29:04.520Z,7.97
2023-01-26T21:31:21.874Z,6.63
2023-01-26T21:33:38.805Z,6.35
2023-01-26T21:35:55.816Z,7.35
2023-01-26T21:38:14.127Z,6.50
2023-01-26T21:40:31.143Z,7.95
2023-01-26T21:42:48.506Z,6.22
2023-01-26T21:45:05.593Z,7.00
2023-01-26T21:47:22.697Z,6.43
2023-01-26T21:49:40.734Z,7.70
2023-01-26T21:51:57.793Z,6.85
2023-01-26T21:54:14.889Z,7.22
2023-01-26T21:56:32.138Z,7.20
2023-01-26T21:58:49.081Z,6.20
2023-01-26T22:01:06.277Z,7.03
2023-01-26T22:03:23.271Z,6.72
2023-01-26T22:05:40.324Z,8.13
2023-01-26T22:07:57.283Z,6.90
2023-01-26T22:10:14.516Z,6.38
2023-01-26T22:12:31.999Z,7.60
2023-01-26T22:14:49.240Z,7.35
2023-01-26T22:17:06.579Z,6.40
2023-01-26T22:19:24.743Z,6.38
2023-01-26T22:21:41.790Z,7.18
2023-01-26T22:23:59.124Z,8.02
2023-01-26T22:26:16.469Z,7.70
2023-01-26T22:28:33.711Z,7.13
2023-01-26T22:30:51.008Z,8.13
2023-01-26T22:33:08.257Z,6.65
2023-01-26T22:35:25.502Z,8.40
2023-01-26T22:37:42.693Z,8.23
2023-01-26T22:39:59.610Z,8.00
2023-01-26T22:42:16.806Z,6.30
2023-01-26T22:44:36.359Z,6.53
2023-01-26T22:46:53.435Z,6.55
2023-01-26T22:49:10.657Z,5.78
2023-01-26T22:51:27.617Z,7.88
2023-01-26T22:53:45.004Z,6.20
2023-01-26T22:56:02.222Z,5.75
2023-01-26T22:58:19.138Z,8.88
2023-01-26T23:00:36.276Z,5.57
2023-01-26T23:02:54.246Z,5.40
2023-01-26T23:05:11.151Z,5.07
2023-01-26T23:07:28.541Z,5.50
2023-01-26T23:09:45.597Z,6.70
2023-01-26T23:12:02.890Z,4.95
2023-01-26T23:14:19.884Z,6.30
2023-01-26T23:16:36.912Z,5.35
2023-01-26T23:18:54.836Z,5.22
2023-01-26T23:21:11.914Z,5.53
2023-01-26T23:23:29.407Z,4.68
2023-01-26T23:25:46.641Z,5.93
2023-01-26T23:28:03.977Z,5.97
2023-01-26T23:30:22.258Z,6.32
2023-01-26T23:32:39.598Z,5.07
2023-01-26T23:34:56.693Z,5.60
2023-01-26T23:37:14.106Z,5.40
2023-01-26T23:39:31.453Z,5.53
2023-01-26T23:41:48.342Z,5.68
2023-01-26T23:44:05.687Z,7.10
2023-01-26T23:46:22.964Z,7.43
2023-01-26T23:48:40.323Z,5.63
2023-01-26T23:50:57.593Z,5.60
2023-01-26T23:53:14.860Z,6.93
2023-01-26T23:55:33.195Z,5.47
2023-01-26T23:57:50.491Z,5.10
